Miami, Florida
Traffic Map
Current Weather Conditions
Miami, Florida
Overcast
Overcast
72°
Feels Like: 72°
Wind Chill: 72° Ceiling: 12000
Heat Index: 72° Visibility: 10mi
Dew Point: 65° Wind: 6mph
Humidity: 78% Direction: 120° (ESE)
Pressure: 30.05in Gusts: 0mph
Raw Report DataKMIA 220253Z 12005KT 10SM BKN120 OVC250 22/18 A3005 RMK AO2 SLP175 T02220183 55001
Traffic Incident Summary
Active as of:
Severity:
Category:
InformationThere was an issue retrieving the traffic information for this location. Please try a different location or try again shortly.
Advertisements
Track Severe Weather on mobile